createdAt,value
2018-09-20T00:00:52.863Z,19.37
2018-09-20T00:01:52.873Z,19.37
2018-09-20T00:02:52.844Z,19.31
2018-09-20T00:03:52.827Z,19.39
2018-09-20T00:04:52.819Z,19.36
2018-09-20T00:05:52.807Z,19.31
2018-09-20T00:06:52.792Z,19.26
2018-09-20T00:07:52.796Z,19.25
2018-09-20T00:08:52.773Z,19.28
2018-09-20T00:09:52.762Z,19.36
2018-09-20T00:10:52.749Z,19.29
2018-09-20T00:11:52.736Z,19.28
2018-09-20T00:12:52.746Z,19.19
2018-09-20T00:13:52.712Z,19.21
2018-09-20T00:14:52.705Z,19.18
2018-09-20T00:15:52.695Z,19.21
2018-09-20T00:16:52.679Z,19.19
2018-09-20T00:17:52.670Z,19.21
2018-09-20T00:18:52.671Z,19.16
2018-09-20T00:19:52.650Z,19.21
2018-09-20T00:20:52.637Z,19.21
2018-09-20T00:21:52.625Z,19.25
2018-09-20T00:22:52.627Z,19.13
2018-09-20T00:23:52.612Z,19.07
2018-09-20T00:24:52.591Z,19.08
2018-09-20T00:25:52.579Z,19.14
2018-09-20T00:26:52.566Z,19.10
2018-09-20T00:27:52.560Z,18.99
2018-09-20T00:28:52.566Z,19.07
2018-09-20T00:29:52.532Z,18.98
2018-09-20T00:30:52.523Z,18.99
2018-09-20T00:31:52.511Z,18.91
2018-09-20T00:32:52.500Z,18.91
2018-09-20T00:33:52.486Z,18.87
2018-09-20T00:34:52.491Z,18.84
2018-09-20T00:35:52.465Z,18.73
2018-09-20T00:36:52.453Z,18.84
2018-09-20T00:37:52.441Z,18.85
2018-09-20T00:38:52.433Z,18.85
2018-09-20T00:39:52.440Z,18.88
2018-09-20T00:40:52.411Z,18.88
2018-09-20T00:41:52.398Z,18.87
2018-09-20T00:42:52.387Z,18.88
2018-09-20T00:43:52.375Z,18.90
2018-09-20T00:44:52.385Z,18.85
2018-09-20T00:45:52.353Z,18.85
2018-09-20T00:46:52.345Z,18.82
2018-09-20T00:47:52.348Z,18.73
2018-09-20T00:48:52.320Z,18.70
2018-09-20T00:49:52.330Z,18.84
2018-09-20T00:50:52.302Z,18.81
2018-09-20T00:51:52.291Z,18.82
2018-09-20T00:52:52.281Z,18.85
2018-09-20T00:53:52.271Z,18.80
2018-09-20T00:54:52.260Z,18.73
2018-09-20T00:55:52.264Z,18.72
2018-09-20T00:56:52.236Z,18.65
2018-09-20T00:57:52.226Z,18.69
2018-09-20T00:58:52.216Z,18.76
2018-09-20T00:59:52.205Z,18.69
2018-09-20T01:00:52.194Z,18.69
2018-09-20T01:01:52.199Z,18.66
2018-09-20T01:02:52.213Z,18.63
2018-09-20T01:03:52.160Z,18.63
2018-09-20T01:04:52.150Z,18.60
2018-09-20T01:05:52.144Z,18.58
2018-09-20T01:06:52.132Z,18.54
2018-09-20T01:07:52.120Z,18.41
2018-09-20T01:08:52.124Z,18.41
2018-09-20T01:09:52.099Z,18.39
2018-09-20T01:10:52.088Z,18.30
2018-09-20T01:11:52.083Z,18.33
2018-09-20T01:12:52.081Z,18.30
2018-09-20T01:13:52.052Z,18.25
2018-09-20T01:14:52.045Z,18.12
2018-09-20T01:15:52.031Z,18.21
2018-09-20T01:16:52.027Z,18.17
2018-09-20T01:17:52.048Z,18.17
2018-09-20T01:18:51.999Z,18.25
2018-09-20T01:19:51.990Z,18.14
2018-09-20T01:20:51.976Z,18.10
2018-09-20T01:21:51.965Z,18.10
2018-09-20T01:22:51.957Z,18.08
2018-09-20T01:23:51.960Z,17.97
2018-09-20T01:24:51.932Z,17.99
2018-09-20T01:25:51.926Z,17.99
2018-09-20T01:26:51.915Z,17.93
2018-09-20T01:27:51.917Z,17.93
2018-09-20T01:28:51.905Z,17.95
2018-09-20T01:29:51.882Z,17.93
2018-09-20T01:30:51.869Z,17.86
2018-09-20T01:31:51.858Z,17.82
2018-09-20T01:32:51.846Z,17.81
2018-09-20T01:33:51.851Z,17.75
2018-09-20T01:34:51.839Z,17.81
2018-09-20T01:35:51.813Z,17.75
2018-09-20T01:36:51.803Z,17.82
2018-09-20T01:37:51.792Z,17.68
2018-09-20T01:38:51.786Z,17.70
2018-09-20T01:39:51.787Z,17.71
2018-09-20T01:40:51.760Z,17.72
2018-09-20T01:41:51.763Z,17.64
2018-09-20T01:42:51.736Z,17.64
2018-09-20T01:43:51.729Z,17.68
2018-09-20T01:44:51.733Z,17.62
2018-09-20T01:45:51.705Z,17.66
2018-09-20T01:46:51.693Z,17.62
2018-09-20T01:47:51.682Z,17.70
2018-09-20T01:48:51.670Z,17.63
2018-09-20T01:49:51.674Z,17.58
2018-09-20T01:50:51.663Z,17.66
2018-09-20T01:51:51.656Z,17.56
2018-09-20T01:52:51.629Z,17.59
2018-09-20T01:53:51.615Z,17.59
2018-09-20T01:54:51.606Z,17.62
2018-09-20T01:55:51.608Z,17.59
2018-09-20T01:56:51.586Z,17.58
2018-09-20T01:57:51.571Z,17.55
2018-09-20T01:58:51.559Z,17.54
2018-09-20T01:59:51.548Z,17.51
2018-09-20T02:00:51.555Z,17.51
2018-09-20T02:01:51.526Z,17.52
2018-09-20T02:02:51.517Z,17.46
2018-09-20T02:03:51.505Z,17.40
2018-09-20T02:04:51.495Z,17.46
2018-09-20T02:05:51.503Z,17.36
2018-09-20T02:06:51.472Z,17.41
2018-09-20T02:07:51.459Z,17.51
2018-09-20T02:08:51.449Z,17.34
2018-09-20T02:09:51.441Z,17.34
2018-09-20T02:10:51.430Z,17.33
2018-09-20T02:11:51.435Z,17.30
2018-09-20T02:12:51.409Z,17.33
2018-09-20T02:13:51.393Z,17.37
2018-09-20T02:14:51.386Z,17.22
2018-09-20T02:15:51.370Z,17.31
2018-09-20T02:16:51.361Z,17.22
2018-09-20T02:17:51.362Z,17.23
2018-09-20T02:18:51.357Z,17.16
2018-09-20T02:19:51.328Z,17.19
2018-09-20T02:20:51.315Z,17.15
2018-09-20T02:21:51.304Z,17.14
2018-09-20T02:22:51.296Z,17.12
2018-09-20T02:23:51.309Z,17.12
2018-09-20T02:24:51.270Z,17.04
2018-09-20T02:25:51.262Z,17.15
2018-09-20T02:26:51.252Z,17.08
2018-09-20T02:27:51.240Z,17.08
2018-09-20T02:28:51.229Z,17.15
2018-09-20T02:29:51.232Z,17.07
2018-09-20T02:30:51.204Z,17.11
2018-09-20T02:31:51.193Z,17.06
2018-09-20T02:32:51.203Z,16.97
2018-09-20T02:33:51.170Z,17.08
2018-09-20T02:34:51.163Z,17.00
2018-09-20T02:35:51.149Z,16.98
2018-09-20T02:36:51.137Z,17.00
2018-09-20T02:37:51.129Z,16.98
2018-09-20T02:38:51.129Z,16.96
2018-09-20T02:39:51.107Z,16.98
2018-09-20T02:40:51.094Z,16.96
2018-09-20T02:41:51.086Z,16.98
2018-09-20T02:42:51.074Z,16.97
2018-09-20T02:43:51.082Z,16.86
2018-09-20T02:44:51.051Z,16.86
2018-09-20T02:45:51.041Z,16.91
2018-09-20T02:46:51.027Z,16.88
2018-09-20T02:47:51.016Z,16.83
2018-09-20T02:48:51.004Z,16.85
2018-09-20T02:49:51.018Z,16.85
2018-09-20T02:50:50.984Z,16.85
2018-09-20T02:51:50.973Z,16.91
2018-09-20T02:52:50.960Z,16.81
2018-09-20T02:53:50.952Z,16.82
2018-09-20T02:54:50.964Z,16.86
2018-09-20T02:55:50.960Z,16.79
2018-09-20T02:56:50.915Z,16.78
2018-09-20T02:57:50.904Z,16.75
2018-09-20T02:58:50.924Z,16.76
2018-09-20T02:59:50.886Z,16.71
2018-09-20T03:00:50.875Z,16.67
2018-09-20T03:01:50.874Z,16.73
2018-09-20T03:02:50.861Z,16.63
2018-09-20T03:03:50.837Z,16.66
2018-09-20T03:04:50.828Z,16.71
2018-09-20T03:05:50.815Z,16.64
2018-09-20T03:06:50.821Z,16.64
2018-09-20T03:07:50.792Z,16.58
2018-09-20T03:08:50.782Z,16.56
2018-09-20T03:09:50.774Z,16.48
2018-09-20T03:10:50.761Z,16.60
2018-09-20T03:11:50.788Z,16.57
2018-09-20T03:12:50.754Z,16.52
2018-09-20T03:13:50.728Z,16.58
2018-09-20T03:14:50.717Z,16.49
2018-09-20T03:15:50.706Z,16.52
2018-09-20T03:16:50.694Z,16.46
2018-09-20T03:17:50.709Z,16.52
2018-09-20T03:18:50.671Z,16.50
2018-09-20T03:19:50.661Z,16.52
2018-09-20T03:20:50.650Z,16.53
2018-09-20T03:21:50.640Z,16.50
2018-09-20T03:22:50.629Z,16.52
2018-09-20T03:23:50.634Z,16.50
2018-09-20T03:24:50.601Z,16.50
2018-09-20T03:25:50.594Z,16.50
2018-09-20T03:26:50.591Z,16.38
2018-09-20T03:27:50.572Z,16.43
2018-09-20T03:28:50.563Z,16.42
2018-09-20T03:29:50.577Z,16.48
2018-09-20T03:30:50.636Z,16.38
2018-09-20T03:31:50.529Z,16.42
2018-09-20T03:32:50.517Z,16.43
2018-09-20T03:33:50.505Z,16.39
2018-09-20T03:34:50.497Z,16.38
2018-09-20T03:35:50.500Z,16.38
2018-09-20T03:36:50.469Z,16.28
2018-09-20T03:37:50.461Z,16.33
2018-09-20T03:38:50.448Z,16.28
2018-09-20T03:39:50.464Z,16.30
2018-09-20T03:40:50.440Z,16.30
2018-09-20T03:41:50.414Z,16.30
2018-09-20T03:42:50.408Z,16.28
2018-09-20T03:43:50.419Z,16.31
2018-09-20T03:44:50.386Z,16.25
2018-09-20T03:45:50.395Z,16.25
2018-09-20T03:46:50.364Z,16.23
2018-09-20T03:47:50.352Z,16.27
2018-09-20T03:48:50.337Z,16.28
2018-09-20T03:49:50.335Z,16.25
2018-09-20T03:50:50.316Z,16.20
2018-09-20T03:51:50.323Z,16.24
2018-09-20T03:52:50.297Z,16.24
2018-09-20T03:53:50.285Z,16.21
2018-09-20T03:54:50.274Z,16.25
2018-09-20T03:55:50.260Z,16.21
2018-09-20T03:56:50.253Z,16.27
2018-09-20T03:57:50.255Z,16.11
2018-09-20T03:58:50.230Z,16.28
2018-09-20T03:59:50.219Z,16.15
2018-09-20T04:00:50.210Z,16.15
2018-09-20T04:01:50.197Z,16.11
2018-09-20T04:02:50.201Z,16.25
2018-09-20T04:03:50.174Z,16.20
2018-09-20T04:04:50.160Z,16.15
2018-09-20T04:05:50.152Z,16.14
2018-09-20T04:06:50.155Z,16.14
2018-09-20T04:07:50.129Z,16.12
2018-09-20T04:08:50.119Z,16.24
2018-09-20T04:09:50.176Z,16.17
2018-09-20T04:10:50.098Z,16.24
2018-09-20T04:11:50.101Z,16.14
2018-09-20T04:12:50.076Z,16.14
2018-09-20T04:13:50.065Z,16.12
2018-09-20T04:14:50.067Z,16.21
2018-09-20T04:15:50.040Z,16.23
2018-09-20T04:16:50.027Z,16.14
2018-09-20T04:17:50.018Z,16.11
2018-09-20T04:18:50.018Z,16.11
2018-09-20T04:19:49.996Z,16.17
2018-09-20T04:20:49.987Z,16.15
2018-09-20T04:21:49.974Z,16.04
2018-09-20T04:22:49.964Z,16.15
2018-09-20T04:23:49.961Z,16.09
2018-09-20T04:24:49.979Z,16.14
2018-09-20T04:25:49.929Z,16.09
2018-09-20T04:26:49.916Z,16.11
2018-09-20T04:27:49.909Z,16.08
2018-09-20T04:28:49.899Z,16.12
2018-09-20T04:29:49.885Z,16.00
2018-09-20T04:30:49.883Z,16.01
2018-09-20T04:31:49.940Z,15.94
2018-09-20T04:32:49.851Z,16.00
2018-09-20T04:33:49.897Z,16.05
2018-09-20T04:34:49.837Z,16.02
2018-09-20T04:35:49.858Z,16.02
2018-09-20T04:36:49.814Z,16.02
2018-09-20T04:37:49.798Z,16.02
2018-09-20T04:38:49.786Z,16.00
2018-09-20T04:39:49.776Z,16.05
2018-09-20T04:40:49.764Z,15.93
2018-09-20T04:41:49.762Z,16.04
2018-09-20T04:42:49.740Z,16.00
2018-09-20T04:43:49.736Z,15.97
2018-09-20T04:44:49.719Z,15.97
2018-09-20T04:45:49.725Z,16.00
2018-09-20T04:46:49.696Z,16.00
2018-09-20T04:47:49.684Z,16.01
2018-09-20T04:48:49.673Z,16.02
2018-09-20T04:49:49.662Z,16.01
2018-09-20T04:50:49.655Z,16.00
2018-09-20T04:51:49.653Z,15.96
2018-09-20T04:52:49.682Z,15.97
2018-09-20T04:53:49.621Z,15.90
2018-09-20T04:54:49.609Z,15.97
2018-09-20T04:55:49.595Z,15.96
2018-09-20T04:56:49.603Z,15.97
2018-09-20T04:57:49.574Z,15.93
2018-09-20T04:58:49.568Z,15.96
2018-09-20T04:59:49.605Z,15.92
2018-09-20T05:00:49.545Z,16.01
2018-09-20T05:01:49.651Z,15.92
2018-09-20T05:02:49.519Z,15.89
2018-09-20T05:03:49.512Z,16.04
2018-09-20T05:04:49.500Z,15.90
2018-09-20T05:05:49.489Z,16.01
2018-09-20T05:06:49.481Z,15.92
2018-09-20T05:07:49.505Z,15.92
2018-09-20T05:08:49.453Z,15.92
2018-09-20T05:09:49.445Z,15.94
2018-09-20T05:10:49.431Z,15.90
2018-09-20T05:11:49.420Z,15.92
2018-09-20T05:12:49.411Z,15.90
2018-09-20T05:13:49.421Z,15.87
2018-09-20T05:14:49.397Z,15.93
2018-09-20T05:15:49.379Z,15.90
2018-09-20T05:16:49.370Z,16.02
2018-09-20T05:17:49.355Z,15.83
2018-09-20T05:18:49.344Z,16.00
2018-09-20T05:19:49.342Z,15.90
2018-09-20T05:20:49.327Z,15.90
2018-09-20T05:21:49.313Z,15.96
2018-09-20T05:22:49.302Z,16.02
2018-09-20T05:23:49.306Z,15.86
2018-09-20T05:24:49.309Z,15.92
2018-09-20T05:25:49.275Z,15.92
2018-09-20T05:26:49.258Z,15.90
2018-09-20T05:27:49.244Z,15.90
2018-09-20T05:28:49.235Z,15.92
2018-09-20T05:29:49.261Z,15.90
2018-09-20T05:30:49.210Z,15.92
2018-09-20T05:31:49.203Z,15.87
2018-09-20T05:32:49.188Z,16.01
2018-09-20T05:33:49.430Z,16.04
2018-09-20T05:34:49.171Z,15.94
2018-09-20T05:35:49.199Z,16.02
2018-09-20T05:36:49.149Z,15.96
2018-09-20T05:37:49.261Z,16.01
2018-09-20T05:38:49.125Z,15.96
2018-09-20T05:39:49.112Z,15.96
2018-09-20T05:40:49.233Z,16.00
2018-09-20T05:41:49.142Z,15.86
2018-09-20T05:42:49.085Z,15.96
2018-09-20T05:43:49.070Z,16.00
2018-09-20T05:44:49.055Z,16.00
2018-09-20T05:45:49.043Z,16.01
2018-09-20T05:46:49.035Z,16.11
2018-09-20T05:47:49.064Z,16.08
2018-09-20T05:48:49.019Z,16.09
2018-09-20T05:49:49.001Z,16.14
2018-09-20T05:50:49.048Z,16.21
2018-09-20T05:51:48.977Z,16.09
2018-09-20T05:52:48.971Z,16.14
2018-09-20T05:53:48.968Z,16.14
2018-09-20T05:54:48.961Z,16.23
2018-09-20T05:55:48.934Z,16.17
2018-09-20T05:56:48.922Z,16.24
2018-09-20T05:57:48.910Z,16.20
2018-09-20T05:58:48.900Z,16.30
2018-09-20T05:59:48.906Z,16.35
2018-09-20T06:00:48.893Z,16.39
2018-09-20T06:01:48.866Z,16.28
2018-09-20T06:02:48.869Z,16.35
2018-09-20T06:03:48.846Z,16.45
2018-09-20T06:04:48.850Z,16.49
2018-09-20T06:05:48.851Z,16.56
2018-09-20T06:06:48.812Z,16.56
2018-09-20T06:07:48.799Z,16.56
2018-09-20T06:08:48.800Z,16.56
2018-09-20T06:09:48.780Z,16.56
2018-09-20T06:10:48.770Z,16.52
2018-09-20T06:11:48.758Z,16.48
2018-09-20T06:12:48.765Z,16.46
2018-09-20T06:13:48.737Z,16.52
2018-09-20T06:14:48.724Z,16.58
2018-09-20T06:15:48.712Z,16.50
2018-09-20T06:16:48.701Z,16.57
2018-09-20T06:17:48.694Z,16.52
2018-09-20T06:18:48.716Z,16.61
2018-09-20T06:19:48.674Z,16.58
2018-09-20T06:20:48.662Z,16.53
2018-09-20T06:21:48.709Z,16.64
2018-09-20T06:22:48.638Z,16.60
2018-09-20T06:23:48.624Z,16.67
2018-09-20T06:24:48.630Z,16.70
2018-09-20T06:25:48.604Z,16.61
2018-09-20T06:26:48.593Z,16.67
2018-09-20T06:27:48.625Z,16.75
2018-09-20T06:28:48.569Z,16.76
2018-09-20T06:29:48.561Z,16.83
2018-09-20T06:30:48.559Z,16.91
2018-09-20T06:31:48.539Z,16.98
2018-09-20T06:32:48.549Z,17.03
2018-09-20T06:33:48.516Z,17.07
2018-09-20T06:34:48.524Z,17.01
2018-09-20T06:35:48.495Z,17.03
2018-09-20T06:36:48.552Z,17.11
2018-09-20T06:37:48.477Z,17.06
2018-09-20T06:38:48.482Z,17.12
2018-09-20T06:39:48.453Z,17.08
2018-09-20T06:40:48.445Z,17.00
2018-09-20T06:41:48.456Z,17.04
2018-09-20T06:42:48.419Z,17.03
2018-09-20T06:43:48.409Z,16.98
2018-09-20T06:44:48.400Z,17.01
2018-09-20T06:45:48.388Z,17.12
2018-09-20T06:46:48.380Z,17.08
2018-09-20T06:47:48.387Z,17.01
2018-09-20T06:48:48.358Z,17.14
2018-09-20T06:49:48.347Z,17.14
2018-09-20T06:50:48.335Z,17.12
2018-09-20T06:51:48.323Z,17.21
2018-09-20T06:52:48.328Z,17.23
2018-09-20T06:53:48.316Z,17.21
2018-09-20T06:54:48.292Z,17.26
2018-09-20T06:55:48.283Z,17.36
2018-09-20T06:56:48.273Z,17.41
2018-09-20T06:57:48.261Z,17.49
2018-09-20T06:58:48.267Z,17.62
2018-09-20T06:59:48.240Z,17.62
2018-09-20T07:00:48.229Z,17.66
2018-09-20T07:01:48.221Z,17.66
2018-09-20T07:02:48.226Z,17.64
2018-09-20T07:03:48.213Z,17.74
2018-09-20T07:04:48.184Z,17.79
2018-09-20T07:05:48.172Z,17.95
2018-09-20T07:06:48.181Z,17.99
2018-09-20T07:07:48.150Z,18.21
2018-09-20T07:08:48.141Z,18.25
2018-09-20T07:09:48.130Z,18.39
2018-09-20T07:10:48.135Z,18.54
2018-09-20T07:11:48.125Z,18.65
2018-09-20T07:12:48.095Z,18.72
2018-09-20T07:13:48.179Z,18.70
2018-09-20T07:14:48.074Z,18.73
2018-09-20T07:15:48.062Z,18.94
2018-09-20T07:16:48.051Z,18.90
2018-09-20T07:17:48.063Z,19.10
2018-09-20T07:18:48.030Z,19.29
2018-09-20T07:19:48.020Z,19.37
2018-09-20T07:20:48.008Z,19.39
2018-09-20T07:21:47.997Z,19.51
2018-09-20T07:22:47.985Z,19.54
2018-09-20T07:23:47.990Z,19.48
2018-09-20T07:24:47.965Z,19.62
2018-09-20T07:25:48.063Z,19.59
2018-09-20T07:26:47.939Z,19.74
2018-09-20T07:27:47.931Z,19.78
2018-09-20T07:28:47.933Z,19.92
2018-09-20T07:29:47.907Z,20.05
2018-09-20T07:30:47.897Z,20.17
2018-09-20T07:31:47.912Z,20.26
2018-09-20T07:32:47.951Z,20.29
2018-09-20T07:33:47.870Z,20.47
2018-09-20T07:34:47.855Z,20.55
2018-09-20T07:35:47.845Z,20.69
2018-09-20T07:36:47.833Z,20.76
2018-09-20T07:37:47.837Z,20.87
2018-09-20T07:38:47.812Z,20.94
2018-09-20T07:39:47.798Z,21.03
2018-09-20T07:40:47.801Z,21.09
2018-09-20T07:41:47.776Z,21.24
2018-09-20T07:42:47.765Z,21.22
2018-09-20T07:43:47.770Z,21.31
2018-09-20T07:44:47.746Z,21.49
2018-09-20T07:45:47.760Z,21.67
2018-09-20T07:46:47.720Z,21.83
2018-09-20T07:47:47.714Z,21.94
2018-09-20T07:48:47.700Z,22.00
2018-09-20T07:49:47.690Z,22.05
2018-09-20T07:50:47.681Z,22.15
2018-09-20T07:51:47.687Z,22.24
2018-09-20T07:52:47.672Z,22.35
2018-09-20T07:53:47.703Z,22.43
2018-09-20T07:54:47.664Z,22.47
2018-09-20T07:55:47.628Z,22.51
2018-09-20T07:56:47.692Z,22.57
2018-09-20T07:57:47.601Z,22.55
2018-09-20T07:58:47.602Z,22.67
2018-09-20T07:59:47.583Z,22.57
2018-09-20T08:00:47.572Z,22.54
2018-09-20T08:01:47.602Z,22.58
2018-09-20T08:02:47.558Z,22.64
2018-09-20T08:03:47.572Z,22.77
2018-09-20T08:04:47.525Z,22.85
2018-09-20T08:05:47.529Z,22.88
2018-09-20T08:06:47.506Z,22.91
2018-09-20T08:07:47.506Z,22.82
2018-09-20T08:08:47.493Z,22.88
2018-09-20T08:09:47.475Z,23.05
2018-09-20T08:10:47.462Z,23.00
2018-09-20T08:11:47.453Z,23.10
2018-09-20T08:12:47.499Z,23.02
2018-09-20T08:13:47.428Z,23.04
2018-09-20T08:14:47.419Z,23.10
2018-09-20T08:15:47.410Z,23.04
2018-09-20T08:16:47.400Z,23.04
2018-09-20T08:17:47.399Z,23.04
2018-09-20T08:18:47.376Z,23.19
2018-09-20T08:19:47.368Z,23.42
2018-09-20T08:20:47.354Z,23.39
2018-09-20T08:21:47.344Z,23.54
2018-09-20T08:22:47.348Z,23.58
2018-09-20T08:23:47.325Z,23.51
2018-09-20T08:24:47.315Z,23.54
2018-09-20T08:25:47.300Z,23.63
2018-09-20T08:26:47.293Z,23.70
2018-09-20T08:27:47.343Z,23.69
2018-09-20T08:28:47.284Z,23.78
2018-09-20T08:29:47.259Z,23.91
2018-09-20T08:30:47.248Z,23.80
2018-09-20T08:31:47.251Z,23.97
2018-09-20T08:32:47.226Z,23.83
2018-09-20T08:33:47.231Z,23.83
2018-09-20T08:34:47.222Z,23.97
2018-09-20T08:35:47.195Z,24.05
2018-09-20T08:36:47.186Z,24.21
2018-09-20T08:37:47.284Z,24.39
2018-09-20T08:38:47.206Z,24.42
2018-09-20T08:39:47.154Z,24.60
2018-09-20T08:40:47.150Z,24.64
2018-09-20T08:41:47.131Z,24.81
2018-09-20T08:42:47.118Z,24.85
2018-09-20T08:43:47.110Z,24.68
2018-09-20T08:44:47.117Z,24.65
2018-09-20T08:45:47.087Z,24.68
2018-09-20T08:46:47.079Z,24.67
2018-09-20T08:47:47.065Z,24.69
2018-09-20T08:48:47.057Z,24.80
2018-09-20T08:49:47.060Z,24.90
2018-09-20T08:50:47.034Z,24.98
2018-09-20T08:51:47.023Z,25.09
2018-09-20T08:52:47.032Z,24.93
2018-09-20T08:53:47.001Z,25.10
2018-09-20T08:54:46.989Z,25.13
2018-09-20T08:55:46.982Z,25.03
2018-09-20T08:56:46.998Z,24.83
2018-09-20T08:57:46.962Z,24.49
2018-09-20T08:58:46.958Z,24.39
2018-09-20T08:59:46.950Z,24.43
2018-09-20T09:00:46.927Z,24.45
2018-09-20T09:01:46.918Z,24.46
2018-09-20T09:02:46.907Z,24.50
2018-09-20T09:03:46.902Z,24.52
2018-09-20T09:04:46.906Z,24.57
2018-09-20T09:05:46.876Z,24.60
2018-09-20T09:06:46.865Z,24.64
2018-09-20T09:07:46.858Z,24.77
2018-09-20T09:08:46.847Z,24.68
2018-09-20T09:09:46.845Z,24.88
2018-09-20T09:10:46.838Z,24.69
2018-09-20T09:11:46.838Z,24.69
2018-09-20T09:12:46.799Z,24.69
2018-09-20T09:13:46.788Z,25.02
2018-09-20T09:14:46.792Z,25.03
2018-09-20T09:15:46.780Z,24.93
2018-09-20T09:16:46.759Z,24.95
2018-09-20T09:17:46.762Z,25.09
2018-09-20T09:18:46.735Z,25.24
2018-09-20T09:19:46.731Z,25.32
2018-09-20T09:20:46.716Z,25.17
2018-09-20T09:21:46.705Z,25.24
2018-09-20T09:22:46.712Z,25.27
2018-09-20T09:23:46.685Z,25.45
2018-09-20T09:24:46.670Z,25.54
2018-09-20T09:25:46.661Z,25.76
2018-09-20T09:26:46.655Z,25.82
2018-09-20T09:27:46.640Z,25.90
2018-09-20T09:28:46.644Z,26.02
2018-09-20T09:29:46.621Z,25.97
2018-09-20T09:30:46.651Z,26.01
2018-09-20T09:31:46.597Z,26.28
2018-09-20T09:32:46.585Z,26.36
2018-09-20T09:33:46.576Z,26.32
2018-09-20T09:34:46.565Z,26.25
2018-09-20T09:35:46.557Z,26.21
2018-09-20T09:36:46.564Z,26.30
2018-09-20T09:37:46.536Z,26.35
2018-09-20T09:38:46.527Z,26.54
2018-09-20T09:39:46.516Z,26.48
2018-09-20T09:40:46.552Z,26.40
2018-09-20T09:41:46.512Z,26.37
2018-09-20T09:42:46.482Z,26.33
2018-09-20T09:43:46.490Z,26.40
2018-09-20T09:44:46.463Z,26.29
2018-09-20T09:45:46.453Z,26.28
2018-09-20T09:46:46.454Z,26.07
2018-09-20T09:47:46.473Z,26.15
2018-09-20T09:48:46.419Z,26.21
2018-09-20T09:49:46.409Z,26.35
2018-09-20T09:50:46.400Z,26.45
2018-09-20T09:51:46.388Z,26.52
2018-09-20T09:52:46.375Z,26.33
2018-09-20T09:53:46.382Z,26.13
2018-09-20T09:54:46.391Z,26.17
2018-09-20T09:55:46.349Z,25.97
2018-09-20T09:56:46.341Z,26.21
2018-09-20T09:57:46.344Z,26.37
2018-09-20T09:58:46.315Z,26.57
2018-09-20T09:59:46.363Z,26.69
2018-09-20T10:00:46.294Z,26.76
2018-09-20T10:01:46.287Z,26.76
2018-09-20T10:02:46.273Z,26.88
2018-09-20T10:03:46.275Z,26.85
2018-09-20T10:04:46.275Z,26.50
2018-09-20T10:05:46.239Z,26.05
2018-09-20T10:06:46.250Z,25.80
2018-09-20T10:07:46.218Z,25.65
2018-09-20T10:08:46.208Z,25.38
2018-09-20T10:09:46.200Z,25.15
2018-09-20T10:10:46.207Z,24.84
2018-09-20T10:11:46.178Z,24.78
2018-09-20T10:12:46.167Z,24.93
2018-09-20T10:13:46.215Z,25.05
2018-09-20T10:14:46.160Z,25.21
2018-09-20T10:15:46.135Z,25.43
2018-09-20T10:16:46.135Z,25.72
2018-09-20T10:17:46.111Z,25.99
2018-09-20T10:18:46.115Z,26.02
2018-09-20T10:19:46.151Z,26.06
2018-09-20T10:20:46.080Z,26.01
2018-09-20T10:21:46.069Z,26.10
2018-09-20T10:22:46.064Z,26.26
2018-09-20T10:23:46.083Z,26.25
2018-09-20T10:24:46.059Z,26.10
2018-09-20T10:25:46.029Z,26.26
2018-09-20T10:26:46.032Z,26.30
2018-09-20T10:27:46.006Z,26.36
2018-09-20T10:28:45.998Z,26.51
2018-09-20T10:29:45.986Z,26.62
2018-09-20T10:30:45.976Z,26.55
2018-09-20T10:31:45.982Z,26.69
2018-09-20T10:32:45.954Z,26.65
2018-09-20T10:33:45.965Z,26.36
2018-09-20T10:34:45.931Z,26.30
2018-09-20T10:35:45.927Z,26.30
2018-09-20T10:36:45.914Z,26.35
2018-09-20T10:37:45.915Z,26.36
2018-09-20T10:38:45.888Z,26.40
2018-09-20T10:39:45.883Z,26.62
2018-09-20T10:40:45.872Z,26.82
2018-09-20T10:41:45.862Z,26.89
2018-09-20T10:42:45.871Z,26.88
2018-09-20T10:43:45.840Z,26.57
2018-09-20T10:44:45.828Z,26.58
2018-09-20T10:45:45.848Z,26.54
2018-09-20T10:46:45.809Z,26.73
2018-09-20T10:47:45.798Z,26.81
2018-09-20T10:48:45.797Z,26.67
2018-09-20T10:49:45.777Z,26.52
2018-09-20T10:50:45.764Z,26.20
2018-09-20T10:51:45.756Z,26.06
2018-09-20T10:52:45.745Z,25.80
2018-09-20T10:53:45.744Z,25.55
2018-09-20T10:54:45.721Z,25.46
2018-09-20T10:55:45.713Z,25.45
2018-09-20T10:56:45.715Z,25.36
2018-09-20T10:57:45.692Z,25.45
2018-09-20T10:58:45.684Z,25.61
2018-09-20T10:59:45.667Z,25.62
2018-09-20T11:00:45.677Z,25.79
2018-09-20T11:01:45.647Z,25.87
2018-09-20T11:02:45.649Z,25.85
2018-09-20T11:03:45.628Z,26.01
2018-09-20T11:04:45.655Z,25.97
2018-09-20T11:05:45.607Z,26.02
2018-09-20T11:06:45.595Z,25.80
2018-09-20T11:07:45.583Z,25.98
2018-09-20T11:08:45.574Z,26.20
2018-09-20T11:09:45.565Z,26.21
2018-09-20T11:10:45.597Z,26.12
2018-09-20T11:11:45.543Z,26.29
2018-09-20T11:12:45.552Z,26.39
2018-09-20T11:13:45.521Z,26.60
2018-09-20T11:14:45.508Z,26.66
2018-09-20T11:15:45.498Z,26.75
2018-09-20T11:16:45.517Z,26.84
2018-09-20T11:17:45.476Z,26.82
2018-09-20T11:18:45.469Z,26.73
2018-09-20T11:19:45.457Z,26.65
2018-09-20T11:20:45.449Z,26.73
2018-09-20T11:21:45.441Z,26.77
2018-09-20T11:22:45.438Z,27.03
2018-09-20T11:23:45.414Z,27.00
2018-09-20T11:24:45.408Z,27.02
2018-09-20T11:25:45.491Z,26.95
2018-09-20T11:26:45.382Z,26.82
2018-09-20T11:27:45.374Z,26.81
2018-09-20T11:28:45.360Z,26.87
2018-09-20T11:29:45.351Z,26.92
2018-09-20T11:30:45.343Z,26.97
2018-09-20T11:31:45.347Z,26.95
2018-09-20T11:32:45.321Z,27.00
2018-09-20T11:33:45.308Z,27.17
2018-09-20T11:34:45.301Z,27.07
2018-09-20T11:35:45.289Z,27.10
2018-09-20T11:36:45.298Z,27.06
2018-09-20T11:37:45.269Z,27.02
2018-09-20T11:38:45.259Z,26.97
2018-09-20T11:39:45.245Z,26.92
2018-09-20T11:40:45.237Z,26.81
2018-09-20T11:41:45.260Z,26.62
2018-09-20T11:42:45.216Z,26.58
2018-09-20T11:43:45.203Z,26.39
2018-09-20T11:44:45.193Z,26.36
2018-09-20T11:45:45.184Z,26.44
2018-09-20T11:46:45.378Z,26.20
2018-09-20T11:47:45.179Z,26.10
2018-09-20T11:48:45.180Z,26.05
2018-09-20T11:49:45.144Z,25.99
2018-09-20T11:50:45.130Z,25.99
2018-09-20T11:51:45.122Z,26.12
2018-09-20T11:52:45.109Z,26.12
2018-09-20T11:53:45.100Z,26.07
2018-09-20T11:54:45.100Z,26.05
2018-09-20T11:55:45.076Z,26.05
2018-09-20T11:56:45.068Z,25.95
2018-09-20T11:57:45.078Z,26.02
2018-09-20T11:58:45.046Z,26.07
2018-09-20T11:59:45.035Z,25.98
2018-09-20T12:00:45.024Z,25.90
2018-09-20T12:01:45.068Z,25.98
2018-09-20T12:02:44.999Z,25.99
2018-09-20T12:03:45.006Z,26.02
2018-09-20T12:04:44.997Z,26.06
2018-09-20T12:05:45.013Z,25.83
2018-09-20T12:06:44.959Z,25.85
2018-09-20T12:07:44.950Z,25.97
2018-09-20T12:08:44.937Z,26.15
2018-09-20T12:09:44.926Z,26.30
2018-09-20T12:10:44.917Z,26.29
2018-09-20T12:11:44.928Z,26.52
2018-09-20T12:12:44.897Z,26.50
2018-09-20T12:13:44.884Z,26.54
2018-09-20T12:14:44.876Z,26.57
2018-09-20T12:15:44.866Z,26.48
2018-09-20T12:16:44.854Z,26.62
2018-09-20T12:17:44.862Z,26.66
2018-09-20T12:18:44.833Z,26.76
2018-09-20T12:19:44.822Z,26.91
2018-09-20T12:20:44.827Z,26.87
2018-09-20T12:21:44.802Z,26.66
2018-09-20T12:22:44.787Z,26.62
2018-09-20T12:23:44.782Z,26.62
2018-09-20T12:24:44.771Z,26.57
2018-09-20T12:25:44.802Z,26.66
2018-09-20T12:26:44.748Z,26.77
2018-09-20T12:27:44.738Z,26.80
2018-09-20T12:28:44.729Z,26.77
2018-09-20T12:29:44.718Z,26.88
2018-09-20T12:30:44.721Z,27.03
2018-09-20T12:31:44.752Z,27.09
2018-09-20T12:32:44.691Z,27.17
2018-09-20T12:33:44.676Z,27.27
2018-09-20T12:34:44.664Z,27.32
2018-09-20T12:35:44.777Z,27.28
2018-09-20T12:36:44.648Z,27.25
2018-09-20T12:37:44.630Z,27.12
2018-09-20T12:38:44.689Z,27.10
2018-09-20T12:39:44.616Z,26.94
2018-09-20T12:40:44.608Z,26.87
2018-09-20T12:41:44.612Z,27.02
2018-09-20T12:42:44.645Z,27.17
2018-09-20T12:43:44.575Z,27.21
2018-09-20T12:44:44.580Z,27.32
2018-09-20T12:45:44.555Z,27.32
2018-09-20T12:46:44.543Z,27.49
2018-09-20T12:47:44.549Z,27.49
2018-09-20T12:48:44.523Z,27.44
2018-09-20T12:49:44.511Z,27.43
2018-09-20T12:50:44.503Z,27.62
2018-09-20T12:51:44.491Z,27.78
2018-09-20T12:52:44.479Z,27.82